Terminal Aerodrome Forecast
Issued by NWS

Home | Current Version | Previous Version | Text Only | Print | Product List | Glossary On
Versions: 1 2 3 4 5 6 7 8 9 10 11 12 13 14 15 16
701
FTUS44 KCRP 201225 AAA
TAFLRD
TAF AMD
KLRD 201225Z 2012/2112 VRB04KT 3/4SM BR BKN003
      TEMPO 2012/2016 1/4SM -RA FG VV002
     FM201600 14005KT 6SM BR BKN015
     FM201800 VRB03KT P6SM FEW025 BKN250
     FM202200 15006KT P6SM SKC
     FM211000 VRB03KT 4SM BR BKN008=

USA.gov is the U.S. government's official web portal to all federal, state and local government web resources and services.